Metar Cercanos

 

LEPA - Palma De Mallorc, Spain
Distance from station: ONO 38km
Actualización: Fri, 23-Apr-2021 3:30pm CEST
Few Clouds
Few Clouds
 Viento del SO
Viento: SO 24 km/h
Temperatura: 18°C
Rocío: 11°C
Humedad: 64%
Barómetro: 1020 hPa
Clouds: Few Clouds
Visibility: 10 km
Cloud details: Few Clouds 549 m
2021/04/23 13:30 LEPA 231330Z 23013KT 200V260 9999 FEW018 18/11 Q1020 NOSIG
LEMH - Mahon/Menorca Is, Spain
Distance from station: ENE 105km
Actualización: Fri, 23-Apr-2021 3:30pm CEST
Few Clouds
Few Clouds
 Viento del NE
Viento: NE 22 km/h
Temperatura: 18°C
Rocío: 9°C
Humedad: 56%
Barómetro: 1020 hPa
Clouds: Few Clouds
Visibility: 10 km
Cloud details: Few Clouds 610 m
2021/04/23 13:30 LEMH 231330Z 04012KT 010V080 9999 FEW020 18/09 Q1020
 
LEIB - Ibiza/Es Codola, Spain
Distance from station: OSO 165km
Actualización: Fri, 23-Apr-2021 3:30pm CEST
Parcialmente nuboso
Parcialmente nuboso
 Viento del E
Viento: E 13 km/h
Temperatura: 17°C
Rocío: 12°C
Humedad: 73%
Barómetro: 1020 hPa
Clouds: Parcialmente nuboso
Visibility: 10 km
Cloud details: Few Clouds 549 m
Parcialmente nuboso 914 m
2021/04/23 13:30 LEIB 231330Z 09007KT 050V160 9999 FEW018 SCT030 17/12 Q1020 NOSIG
LEBL - Barcelona Airpor, Spain
Distance from station: NNO 225km
Actualización: Fri, 23-Apr-2021 3:30pm CEST
Despejado
Despejado
 Viento del ESE
Viento: ESE 11 km/h
Temperatura: 18°C
Rocío: 8°C
Humedad: 52%
Barómetro: 1022 hPa
Resumen: Despejado
Visibility: greater than 10 km
2021/04/23 13:30 LEBL 231330Z 12006KT 070V170 CAVOK 18/08 Q1022 NOSIG
 
LEVC - Valencia (civ/Mi, Spain
Distance from station: NO 188km
Actualización: Fri, 23-Apr-2021 3:30pm CEST
Few Clouds
Few Clouds
 Viento del ESE
Viento: ESE 15 km/h
Temperatura: 18°C
Rocío: 11°C
Humedad: 64%
Barómetro: 1021 hPa
Clouds: Few Clouds
Visibility: 10 km
Cloud details: Few Clouds 610 m
2021/04/23 13:30 LEVC 231330Z 11008KT 070V140 9999 FEW020 18/11 Q1021
LEGE - Gerona/Costa Bra, Spain
Distance from station: N 276km
Actualización: Fri, 23-Apr-2021 3:30pm CEST
Few Clouds
Few Clouds
 Viento del S
Viento: S 17 km/h
Temperatura: 21°C
Rocío: 7°C
Humedad: 40%
Barómetro: 1021 hPa
Clouds: Few Clouds
Visibility: 10 km
Cloud details: Few Clouds 1524 m
2021/04/23 13:30 LEGE 231330Z 17009KT 120V210 9999 FEW050 21/07 Q1021
 
LEAL - Alicante/El Alte, Spain
Distance from station: OSO 344km
Actualización: Fri, 23-Apr-2021 3:30pm CEST
Few Clouds
Few Clouds
 Viento del E
Viento: E 22 km/h
Temperatura: 18°C
Rocío: 12°C
Humedad: 68%
Barómetro: 1020 hPa
Clouds: Few Clouds
Visibility: 10 km
Cloud details: Few Clouds 732 m
2021/04/23 13:30 LEAL 231330Z 08012KT 9999 FEW024 18/12 Q1020 NOSIG
LEAM - Almeria Airport, Spain
Distance from station: SSO 56km
Actualización: Fri, 23-Apr-2021 3:30pm CEST
Parcialmente nuboso
Parcialmente nuboso
 Viento del E
Viento: E 30 km/h
Temperatura: 22°C
Rocío: 11°C
Humedad: 50%
Barómetro: 1017 hPa
Clouds: Parcialmente nuboso
Visibility: 10 km
Cloud details: Parcialmente nuboso 1219 m
2021/04/23 13:30 LEAM 231330Z 08016KT 050V120 9999 SCT040 22/11 Q1017
 
LEZG - Zaragoza (mil/Ci, Spain
Distance from station: NO 431km
Actualización: Fri, 23-Apr-2021 3:30pm CEST
Despejado
Despejado
 Viento del ESE
Viento: ESE 26 km/h
Temperatura: 21°C
Rocío: 6°C
Humedad: 38%
Barómetro: 1019 hPa
Resumen: Despejado
Visibility: greater than 10 km
2021/04/23 13:30 LEZG 231330Z 11014KT 070V150 CAVOK 21/06 Q1019
LEMD - Madrid/Barajas, Spain
Distance from station: ONO 234km
Actualización: Fri, 23-Apr-2021 3:30pm CEST
Muy nuboso
Muy nuboso
 Viento del SSE
Viento: SSE 19 km/h
Temperatura: 16°C
Rocío: 9°C
Humedad: 63%
Barómetro: 1018 hPa
Clouds: Muy nuboso
Visibility: 10 km
Cloud details: Few Clouds 1067 m
Muy nuboso 1524 m
2021/04/23 13:30 LEMD 231330Z 16010KT 9999 FEW035 BKN050 16/09 Q1018 NOSIG
 
LEGR - Granada Airport, Spain
Distance from station: OSO 62km
Actualización: Fri, 23-Apr-2021 3:30pm CEST
Few Clouds
Few Clouds
 Viento del SE
Viento: SE 22 km/h
Temperatura: 23°C
Rocío: 8°C
Humedad: 38%
Barómetro: 1015 hPa
Clouds: Few Clouds
Visibility: 10 km
Cloud details: Few Clouds 1524 m
2021/04/23 13:30 LEGR 231330Z 14012KT 100V200 9999 FEW050 23/08 Q1015
LEMG - Malaga (civ/Mil), Spain
Distance from station: OSO 227km
Actualización: Fri, 23-Apr-2021 3:30pm CEST
Parcialmente nuboso
Parcialmente nuboso
 Viento del SE
Viento: SE 19 km/h
Temperatura: 21°C
Rocío: 15°C
Humedad: 69%
Barómetro: 1017 hPa
Clouds: Parcialmente nuboso
Visibility: 10 km
Cloud details: Few Clouds 610 m
Parcialmente nuboso 1524 m
2021/04/23 13:30 LEMG 231330Z 13010KT 090V170 9999 FEW020 SCT050 21/15 Q1017 NOSIG
 
LEZL - Sevilla (civ/Mil, Spain
Distance from station: S 318km
Actualización: Fri, 23-Apr-2021 3:30pm CEST
Despejado
Despejado
 Viento del SSO
Viento: SSO 7 km/h
Temperatura: 26°C
Rocío: 10°C
Humedad: 37%
Barómetro: 1012 hPa
Resumen: Despejado
Visibility: greater than 10 km
2021/04/23 13:30 LEZL 231330Z 20004KT CAVOK 26/10 Q1012 NOSIG
LEVT - Vitoria, Spain
Distance from station: NO 226km
Actualización: Fri, 23-Apr-2021 3:30pm CEST
Few Clouds
Few Clouds
 Viento del SSE
Viento: SSE 24 km/h
Temperatura: 19°C
Rocío: 6°C
Humedad: 43%
Barómetro: 1017 hPa
Clouds: Few Clouds
Visibility: 10 km
Cloud details: Few Clouds 1219 m
2021/04/23 13:30 LEVT 231330Z 15013KT 110V190 9999 FEW040 19/06 Q1017
 
LEBB - Bilbao/Sondica, Spain
Distance from station: NNO 235km
Actualización: Fri, 23-Apr-2021 3:30pm CEST
Few Clouds
Few Clouds
 Viento del SE
Viento: SE 19 km/h
Temperatura: 25°C
Rocío: 8°C
Humedad: 34%
Barómetro: 1015 hPa
Clouds: Few Clouds
Visibility: 10 km
Cloud details: Few Clouds 2134 m
2021/04/23 13:30 LEBB 231330Z 13010KT 080V160 9999 FEW070 25/08 Q1015 NOSIG
LESO - San Sebastian/Fu, Spain
Distance from station: N 231km
Actualización: Fri, 23-Apr-2021 3:30pm CEST
Despejado
Despejado
 Viento del SSE
Viento: SSE 15 km/h
Temperatura: 26°C
Rocío: 8°C
Humedad: 32%
Barómetro: 1016 hPa
Resumen: Despejado
Visibility: greater than 10 km
2021/04/23 13:30 LESO 231330Z 16008KT 100V230 CAVOK 26/08 Q1016
 
LEVD - Valladolid(Mil/C, Spain
Distance from station: ONO 239km
Actualización: Fri, 23-Apr-2021 3:30pm CEST
Parcialmente nuboso
Parcialmente nuboso
 Viento del SSE
Viento: SSE 17 km/h
Temperatura: 15°C
Rocío: 8°C
Humedad: 63%
Barómetro: 1016 hPa
Clouds: Parcialmente nuboso
Visibility: 10 km
Cloud details: Parcialmente nuboso 975 m
2021/04/23 13:30 LEVD 231330Z 16009KT 120V200 9999 SCT032 15/08 Q1016
LESA - Salamanca (civ/M, Spain
Distance from station: ONO 349km
Actualización: Fri, 23-Apr-2021 3:30pm CEST
Few Clouds
Few Clouds
 Viento del S
Viento: S 15 km/h
Temperatura: 19°C
Rocío: 7°C
Humedad: 46%
Barómetro: 1015 hPa
Clouds: Few Clouds
Visibility: 10 km
Cloud details: Few Clouds 1372 m
2021/04/23 13:30 LESA 231330Z 17008KT 120V240 9999 FEW045 19/07 Q1015
 
LEXJ - Santander/Paraya, Spain
Distance from station: NNO 247km
Actualización: Fri, 23-Apr-2021 3:30pm CEST
Few Clouds
Few Clouds
 Viento del S
Viento: S 19 km/h
Temperatura: 24°C
Rocío: 8°C
Humedad: 36%
Barómetro: 1013 hPa
Clouds: Few Clouds
Visibility: 10 km
Cloud details: Few Clouds 2073 m
2021/04/23 13:30 LEXJ 231330Z 17010KT 140V210 9999 FEW068 24/08 Q1013
LEAS - Asturias/Aviles, Spain
Distance from station: NO 214km
Actualización: Fri, 23-Apr-2021 3:30pm CEST
Few Clouds
Few Clouds
 Viento del varies
Viento: varies 4 km/h
Temperatura: 21°C
Rocío: 11°C
Humedad: 53%
Barómetro: 1013 hPa
Clouds: Few Clouds
Visibility: 10 km
Cloud details: Few Clouds 1524 m
2021/04/23 13:30 LEAS 231330Z VRB02KT 9999 FEW050 21/11 Q1013 NOSIG
 
LECO - La Coruna/Alvedr, Spain
Distance from station: ONO 222km
Actualización: Fri, 23-Apr-2021 3:30pm CEST
Despejado
Despejado
 Viento del SSE
Viento: SSE 20 km/h, Racha: 43 km/h
Temperatura: 20°C
Rocío: 12°C
Humedad: 60%
Barómetro: 1010 hPa
Resumen: Despejado
Visibility: greater than 10 km
2021/04/23 13:30 LECO 231330Z 15011G23KT 100V180 CAVOK 20/12 Q1010 NOSIG
LEVX - Vigo/Peinador, Spain
Distance from station: O 214km
Actualización: Fri, 23-Apr-2021 3:30pm CEST
Few Clouds
Few Clouds
 Viento del SSO
Viento: SSO 11 km/h
Temperatura: 17°C
Rocío: 13°C
Humedad: 77%
Barómetro: 1011 hPa
Clouds: Few Clouds
Visibility: 10 km
Cloud details: Few Clouds 1524 m
2021/04/23 13:30 LEVX 231330Z 20006KT 160V240 9999 FEW050 17/13 Q1011 TEMPO 3000 RA